< < Back
Terminal Aerodrome Forecast


Current Version              Previous Versions:   1  2  3  4  5  6  7  8  9  

Terminal Aerodrome Forecast

607
FTUS42 KFFC 280757 AAA
TAFATL
TAF AMD
KATL 280757Z 2808/2912 08007KT P6SM VCSH SCT005 BKN050
     FM281000 12005KT 5SM BR BKN012
     FM281400 16006KT P6SM VCSH BKN025 PROB30 2818/2822 3SM -TSRA
      BKN030CB
     FM282200 14004KT P6SM BKN035
     FM290400 10003KT P6SM BKN050=



Latest METAR

734
SAUS70 KWBC 281600 RRB
MTRATL
METAR KATL 281552Z 15006KT 10SM FEW020 SCT060 BKN110 BKN250 26/19 A3023
RMK AO2 SLP227 TCU DSNT SE-S-SW T02560189


USA.gov is the U.S. government's official web portal to all federal, state and local government web resources and services.